createdAt,value
2022-09-17T00:01:23.139Z,1.07
2022-09-17T00:03:55.839Z,1.07
2022-09-17T00:06:24.115Z,1.00
2022-09-17T00:08:51.328Z,1.10
2022-09-17T00:11:23.844Z,0.90
2022-09-17T00:13:52.100Z,0.90
2022-09-17T00:16:28.831Z,1.20
2022-09-17T00:18:55.767Z,1.00
2022-09-17T00:21:22.795Z,1.00
2022-09-17T00:23:49.521Z,0.90
2022-09-17T00:26:16.106Z,1.00
2022-09-17T00:28:45.439Z,0.90
2022-09-17T00:31:12.318Z,1.17
2022-09-17T00:33:38.974Z,1.43
2022-09-17T00:36:06.093Z,1.13
2022-09-17T00:38:33.607Z,1.33
2022-09-17T00:41:01.016Z,1.07
2022-09-17T00:43:45.075Z,1.10
2022-09-17T00:46:42.446Z,0.80
2022-09-17T00:49:29.248Z,0.90
2022-09-17T00:52:02.241Z,0.77
2022-09-17T00:54:29.254Z,0.90
2022-09-17T00:56:57.084Z,1.40
2022-09-17T00:59:24.154Z,0.87
2022-09-17T01:01:50.931Z,1.20
2022-09-17T01:04:19.404Z,1.00
2022-09-17T01:07:01.155Z,1.10
2022-09-17T01:09:50.089Z,1.20
2022-09-17T01:12:40.700Z,0.90
2022-09-17T01:15:41.040Z,0.90
2022-09-17T01:18:42.575Z,0.83
2022-09-17T01:21:25.074Z,1.00
2022-09-17T01:24:13.520Z,1.10
2022-09-17T01:26:42.992Z,0.90
2022-09-17T01:29:31.879Z,1.17
2022-09-17T01:32:01.497Z,1.13
2022-09-17T01:34:40.506Z,1.23
2022-09-17T01:37:15.858Z,1.20
2022-09-17T01:39:52.868Z,1.70
2022-09-17T01:42:43.143Z,1.30
2022-09-17T01:45:19.603Z,1.10
2022-09-17T01:47:54.092Z,1.20
2022-09-17T01:50:27.636Z,1.20
2022-09-17T01:52:55.715Z,1.00
2022-09-17T01:55:26.053Z,1.40
2022-09-17T01:57:56.592Z,1.20
2022-09-17T02:00:23.505Z,1.37
2022-09-17T02:03:20.116Z,1.30
2022-09-17T02:05:56.160Z,1.20
2022-09-17T02:08:26.121Z,1.30
2022-09-17T02:10:57.546Z,0.97
2022-09-17T02:13:33.169Z,1.30
2022-09-17T02:16:10.182Z,1.40
2022-09-17T02:18:42.606Z,1.23
2022-09-17T02:21:15.667Z,1.53
2022-09-17T02:23:53.345Z,1.20
2022-09-17T02:26:21.312Z,1.40
2022-09-17T02:28:48.128Z,1.40
2022-09-17T02:31:14.919Z,1.00
2022-09-17T02:33:45.295Z,1.20
2022-09-17T02:36:11.897Z,1.23
2022-09-17T02:38:40.901Z,1.20
2022-09-17T02:41:20.458Z,1.00
2022-09-17T02:43:50.147Z,1.33
2022-09-17T02:46:29.575Z,1.23
2022-09-17T02:49:15.405Z,1.10
2022-09-17T02:51:47.571Z,1.00
2022-09-17T02:54:38.891Z,1.23
2022-09-17T02:57:46.535Z,1.37
2022-09-17T03:00:18.978Z,1.30
2022-09-17T03:03:08.805Z,1.07
2022-09-17T03:05:36.790Z,0.97
2022-09-17T03:08:03.618Z,1.60
2022-09-17T03:10:33.520Z,1.20
2022-09-17T03:13:00.090Z,1.57
2022-09-17T03:15:26.895Z,1.47
2022-09-17T03:17:53.693Z,1.77
2022-09-17T03:20:20.340Z,1.30
2022-09-17T03:22:47.327Z,1.37
2022-09-17T03:25:13.909Z,1.53
2022-09-17T03:27:40.559Z,1.70
2022-09-17T03:30:07.606Z,1.37
2022-09-17T03:32:34.209Z,1.40
2022-09-17T03:35:00.795Z,1.73
2022-09-17T03:37:32.239Z,1.30
2022-09-17T03:39:59.633Z,1.50
2022-09-17T03:42:26.257Z,1.77
2022-09-17T03:44:52.794Z,1.60
2022-09-17T03:47:19.293Z,1.60
2022-09-17T03:49:45.852Z,1.80
2022-09-17T03:52:12.391Z,1.40
2022-09-17T03:54:38.898Z,1.57
2022-09-17T03:57:05.547Z,1.50
2022-09-17T03:59:32.178Z,1.50
2022-09-17T04:01:58.820Z,1.70
2022-09-17T04:04:25.905Z,1.73
2022-09-17T04:06:52.424Z,1.70
2022-09-17T04:09:18.932Z,1.43
2022-09-17T04:11:45.607Z,1.90
2022-09-17T04:14:12.126Z,1.60
2022-09-17T04:16:38.645Z,1.47
2022-09-17T04:19:05.358Z,1.20
2022-09-17T04:21:31.867Z,1.30
2022-09-17T04:23:58.407Z,1.50
2022-09-17T04:26:24.968Z,1.23
2022-09-17T04:28:51.476Z,1.60
2022-09-17T04:31:18.045Z,1.50
2022-09-17T04:33:44.629Z,1.27
2022-09-17T04:36:11.131Z,1.33
2022-09-17T04:38:37.677Z,1.20
2022-09-17T04:41:07.049Z,1.30
2022-09-17T04:43:33.946Z,1.37
2022-09-17T04:46:00.763Z,1.40
2022-09-17T04:48:27.310Z,1.37
2022-09-17T04:50:53.856Z,1.37
2022-09-17T04:53:20.368Z,1.23
2022-09-17T04:55:46.955Z,1.57
2022-09-17T04:58:13.605Z,1.40
2022-09-17T05:00:41.843Z,1.57
2022-09-17T05:03:08.825Z,1.33
2022-09-17T05:05:35.456Z,1.57
2022-09-17T05:08:02.266Z,1.73
2022-09-17T05:10:29.090Z,1.50
2022-09-17T05:12:56.495Z,1.50
2022-09-17T05:15:24.600Z,1.43
2022-09-17T05:17:51.251Z,1.47
2022-09-17T05:20:18.390Z,1.40
2022-09-17T05:22:46.479Z,1.47
2022-09-17T05:25:14.600Z,1.93
2022-09-17T05:27:41.425Z,1.50
2022-09-17T05:30:08.949Z,1.50
2022-09-17T05:32:36.639Z,1.63
2022-09-17T05:35:05.717Z,1.80
2022-09-17T05:37:32.625Z,1.70
2022-09-17T05:39:59.296Z,1.70
2022-09-17T05:42:25.883Z,1.80
2022-09-17T05:44:52.454Z,1.50
2022-09-17T05:47:19.019Z,1.60
2022-09-17T05:49:45.556Z,1.60
2022-09-17T05:52:12.087Z,1.60
2022-09-17T05:54:38.642Z,1.40
2022-09-17T05:57:06.105Z,2.13
2022-09-17T05:59:33.305Z,1.57
2022-09-17T06:02:00.018Z,1.43
2022-09-17T06:04:27.712Z,1.60
2022-09-17T06:06:56.223Z,2.00
2022-09-17T06:09:22.773Z,1.70
2022-09-17T06:11:49.422Z,2.00
2022-09-17T06:14:16.398Z,2.20
2022-09-17T06:16:43.018Z,2.27
2022-09-17T06:19:09.619Z,2.20
2022-09-17T06:21:36.155Z,2.33
2022-09-17T06:24:03.075Z,2.30
2022-09-17T06:26:29.623Z,2.30
2022-09-17T06:28:56.278Z,2.30
2022-09-17T06:31:22.887Z,2.40
2022-09-17T06:33:51.143Z,2.40
2022-09-17T06:36:17.763Z,2.10
2022-09-17T06:38:45.369Z,2.23
2022-09-17T06:41:12.559Z,2.47
2022-09-17T06:43:39.180Z,2.10
2022-09-17T06:46:07.658Z,2.53
2022-09-17T06:48:35.548Z,2.20
2022-09-17T06:51:04.462Z,2.00
2022-09-17T06:53:31.548Z,2.10
2022-09-17T06:56:02.339Z,1.90
2022-09-17T06:58:32.068Z,2.00
2022-09-17T07:01:02.245Z,1.93
2022-09-17T07:03:30.115Z,1.83
2022-09-17T07:05:57.249Z,1.73
2022-09-17T07:08:24.129Z,1.90
2022-09-17T07:10:50.682Z,1.87
2022-09-17T07:13:17.259Z,1.90
2022-09-17T07:15:43.841Z,1.80
2022-09-17T07:18:11.510Z,1.77
2022-09-17T07:20:39.214Z,1.50
2022-09-17T07:23:05.890Z,1.53
2022-09-17T07:25:32.444Z,1.50
2022-09-17T07:27:59.765Z,1.60
2022-09-17T07:30:26.262Z,1.20
2022-09-17T07:32:52.822Z,1.30
2022-09-17T07:35:19.414Z,1.37
2022-09-17T07:37:47.288Z,1.33
2022-09-17T07:40:13.870Z,1.20
2022-09-17T07:42:40.787Z,1.20
2022-09-17T07:45:07.782Z,1.10
2022-09-17T07:47:39.063Z,1.47
2022-09-17T07:50:06.712Z,1.93
2022-09-17T07:52:33.232Z,1.77
2022-09-17T07:54:59.789Z,1.80
2022-09-17T07:57:26.824Z,2.23
2022-09-17T07:59:53.358Z,2.90
2022-09-17T08:02:24.121Z,2.40
2022-09-17T08:04:51.042Z,2.40
2022-09-17T08:07:17.625Z,2.73
2022-09-17T08:09:44.269Z,2.40
2022-09-17T08:12:10.841Z,2.33
2022-09-17T08:14:37.386Z,2.53
2022-09-17T08:17:07.027Z,2.70
2022-09-17T08:19:33.610Z,1.90
2022-09-17T08:22:00.166Z,3.00
2022-09-17T08:24:27.668Z,3.50
2022-09-17T08:26:54.304Z,3.10
2022-09-17T08:29:20.831Z,3.13
2022-09-17T08:31:47.547Z,2.57
2022-09-17T08:34:14.224Z,2.80
2022-09-17T08:36:40.827Z,2.20
2022-09-17T08:39:08.158Z,2.60
2022-09-17T08:42:09.655Z,2.80
2022-09-17T08:44:41.769Z,2.60
2022-09-17T08:47:13.255Z,2.43
2022-09-17T08:49:52.182Z,2.47
2022-09-17T08:52:48.513Z,2.67
2022-09-17T08:55:33.974Z,2.67
2022-09-17T08:58:45.049Z,2.63
2022-09-17T09:01:25.014Z,2.50
2022-09-17T09:04:45.944Z,2.83
2022-09-17T09:07:21.578Z,2.80
2022-09-17T09:09:56.072Z,3.00
2022-09-17T09:12:25.723Z,2.40
2022-09-17T09:15:01.444Z,2.50
2022-09-17T09:17:39.531Z,2.23
2022-09-17T09:20:32.155Z,2.00
2022-09-17T09:23:03.852Z,2.70
2022-09-17T09:25:37.163Z,2.10
2022-09-17T09:28:21.946Z,2.83
2022-09-17T09:31:03.536Z,2.50
2022-09-17T09:33:45.652Z,2.30
2022-09-17T09:36:15.949Z,2.03
2022-09-17T09:38:56.632Z,1.70
2022-09-17T09:41:55.833Z,2.13
2022-09-17T09:44:24.609Z,2.10
2022-09-17T09:47:26.397Z,1.90
2022-09-17T09:50:02.071Z,1.80
2022-09-17T09:53:03.501Z,1.83
2022-09-17T09:55:49.083Z,1.77
2022-09-17T09:58:21.887Z,2.00
2022-09-17T10:00:48.620Z,1.90
2022-09-17T10:03:20.487Z,1.77
2022-09-17T10:06:06.671Z,1.70
2022-09-17T10:08:36.493Z,1.90
2022-09-17T10:11:09.137Z,1.90
2022-09-17T10:13:37.038Z,1.60
2022-09-17T10:16:27.761Z,1.80
2022-09-17T10:19:03.656Z,1.60
2022-09-17T10:21:39.598Z,1.40
2022-09-17T10:24:22.076Z,1.60
2022-09-17T10:26:48.630Z,1.17
2022-09-17T10:29:18.809Z,1.73
2022-09-17T10:31:53.417Z,1.60
2022-09-17T10:34:26.753Z,1.20
2022-09-17T10:36:56.091Z,1.30
2022-09-17T10:39:44.427Z,1.47
2022-09-17T10:42:18.504Z,1.60
2022-09-17T10:44:58.835Z,1.50
2022-09-17T10:47:30.262Z,1.50
2022-09-17T10:50:01.344Z,2.07
2022-09-17T10:52:42.392Z,1.97
2022-09-17T10:55:21.171Z,1.30
2022-09-17T10:58:06.321Z,1.60
2022-09-17T11:01:05.349Z,1.80
2022-09-17T11:04:09.252Z,2.40
2022-09-17T11:06:41.365Z,1.50
2022-09-17T11:09:19.803Z,1.67
2022-09-17T11:12:12.560Z,2.50
2022-09-17T11:14:51.797Z,2.97
2022-09-17T11:18:03.430Z,1.33
2022-09-17T11:20:49.916Z,1.37
2022-09-17T11:23:41.455Z,1.40
2022-09-17T11:26:28.266Z,1.40
2022-09-17T11:29:06.999Z,1.10
2022-09-17T11:32:01.412Z,1.33
2022-09-17T11:34:32.629Z,1.57
2022-09-17T11:36:59.143Z,1.20
2022-09-17T11:39:36.348Z,1.23
2022-09-17T11:42:06.830Z,1.60
2022-09-17T11:44:40.564Z,1.27
2022-09-17T11:47:14.401Z,1.77
2022-09-17T11:49:48.929Z,1.30
2022-09-17T11:52:21.919Z,1.00
2022-09-17T11:55:00.359Z,1.17
2022-09-17T11:57:34.822Z,1.20
2022-09-17T12:00:28.129Z,1.60
2022-09-17T12:03:02.079Z,1.07
2022-09-17T12:05:31.558Z,1.30
2022-09-17T12:08:20.560Z,1.03
2022-09-17T12:11:01.867Z,1.20
2022-09-17T12:13:35.201Z,1.37
2022-09-17T12:16:07.762Z,1.50
2022-09-17T12:18:52.271Z,1.53
2022-09-17T12:21:24.230Z,1.37
2022-09-17T12:23:58.065Z,1.57
2022-09-17T12:26:53.703Z,1.97
2022-09-17T12:29:37.048Z,1.60
2022-09-17T12:32:31.526Z,1.50
2022-09-17T12:35:41.058Z,1.50
2022-09-17T12:38:51.859Z,1.37
2022-09-17T12:41:45.078Z,1.80
2022-09-17T12:44:37.206Z,1.40
2022-09-17T12:47:31.379Z,0.80
2022-09-17T12:50:06.336Z,0.40
2022-09-17T12:52:46.529Z,0.80
2022-09-17T12:55:31.281Z,0.93
2022-09-17T12:58:17.577Z,1.13
2022-09-17T13:00:48.344Z,2.07
2022-09-17T13:03:21.132Z,1.70
2022-09-17T13:06:20.169Z,1.73
2022-09-17T13:09:25.253Z,2.20
2022-09-17T13:12:04.020Z,1.83
2022-09-17T13:14:57.454Z,1.67
2022-09-17T13:17:46.776Z,1.60
2022-09-17T13:20:27.210Z,1.70
2022-09-17T13:22:56.041Z,1.30
2022-09-17T13:25:23.352Z,1.80
2022-09-17T13:27:50.982Z,2.03
2022-09-17T13:30:18.979Z,2.03
2022-09-17T13:32:47.743Z,1.60
2022-09-17T13:35:17.082Z,1.70
2022-09-17T13:37:52.874Z,1.43
2022-09-17T13:40:28.478Z,1.80
2022-09-17T13:42:57.151Z,1.60
2022-09-17T13:45:24.960Z,1.10
2022-09-17T13:48:06.065Z,1.10
2022-09-17T13:50:40.806Z,0.90
2022-09-17T13:53:13.366Z,1.00
2022-09-17T13:55:52.120Z,0.80
2022-09-17T13:58:21.549Z,0.80
2022-09-17T14:01:12.840Z,0.77
2022-09-17T14:03:44.197Z,0.90
2022-09-17T14:06:21.182Z,1.23
2022-09-17T14:08:49.441Z,1.77
2022-09-17T14:11:32.247Z,1.07
2022-09-17T14:14:04.575Z,1.70
2022-09-17T14:16:37.360Z,2.50
2022-09-17T14:19:16.650Z,1.80
2022-09-17T14:21:46.484Z,1.70
2022-09-17T14:24:22.579Z,1.97
2022-09-17T14:27:26.458Z,1.73
2022-09-17T14:30:04.054Z,1.23
2022-09-17T14:32:39.607Z,1.60
2022-09-17T14:35:22.931Z,1.20
2022-09-17T14:37:56.386Z,3.47
2022-09-17T14:40:24.125Z,5.30
2022-09-17T14:42:55.098Z,7.07
2022-09-17T14:45:24.003Z,2.30
2022-09-17T14:48:20.518Z,1.97
2022-09-17T14:50:47.049Z,1.63
2022-09-17T14:53:18.373Z,7.57
2022-09-17T14:55:47.563Z,8.60
2022-09-17T14:58:36.461Z,9.57
2022-09-17T15:01:03.367Z,3.70
2022-09-17T15:03:29.975Z,2.20
2022-09-17T15:05:56.639Z,2.10
2022-09-17T15:08:25.025Z,6.97
2022-09-17T15:10:57.130Z,4.53
2022-09-17T15:13:29.640Z,1.97
2022-09-17T15:15:59.210Z,1.70
2022-09-17T15:18:33.437Z,1.20
2022-09-17T15:21:01.196Z,1.00
2022-09-17T15:23:28.680Z,1.13
2022-09-17T15:25:57.853Z,1.23
2022-09-17T15:28:39.516Z,0.90
2022-09-17T15:31:07.154Z,1.73
2022-09-17T15:33:33.983Z,1.70
2022-09-17T15:36:26.676Z,1.37
2022-09-17T15:38:53.783Z,1.67
2022-09-17T15:41:36.200Z,1.60
2022-09-17T15:44:31.231Z,1.57
2022-09-17T15:47:35.957Z,1.10
2022-09-17T15:50:38.168Z,1.33
2022-09-17T15:53:10.909Z,1.63
2022-09-17T15:55:41.078Z,1.70
2022-09-17T15:58:33.042Z,1.80
2022-09-17T16:01:11.741Z,2.50
2022-09-17T16:03:38.328Z,2.23
2022-09-17T16:06:25.562Z,1.87
2022-09-17T16:08:53.015Z,1.60
2022-09-17T16:11:21.896Z,1.83
2022-09-17T16:13:49.684Z,2.33
2022-09-17T16:16:36.186Z,2.80
2022-09-17T16:19:04.325Z,4.37
2022-09-17T16:21:32.156Z,2.70
2022-09-17T16:23:59.340Z,2.70
2022-09-17T16:26:30.103Z,1.87
2022-09-17T16:29:02.442Z,2.00
2022-09-17T16:31:29.284Z,1.60
2022-09-17T16:33:55.987Z,1.77
2022-09-17T16:36:22.873Z,2.73
2022-09-17T16:38:49.404Z,4.77
2022-09-17T16:41:15.960Z,3.20
2022-09-17T16:43:42.557Z,4.57
2022-09-17T16:46:11.190Z,3.73
2022-09-17T16:48:38.110Z,3.53
2022-09-17T16:51:09.108Z,4.83
2022-09-17T16:53:35.670Z,3.50
2022-09-17T16:56:07.203Z,4.30
2022-09-17T16:58:34.595Z,3.30
2022-09-17T17:01:12.251Z,4.03
2022-09-17T17:03:38.853Z,4.10
2022-09-17T17:06:05.871Z,3.77
2022-09-17T17:08:33.372Z,2.90
2022-09-17T17:10:59.950Z,1.90
2022-09-17T17:13:27.800Z,2.40
2022-09-17T17:15:54.985Z,1.93
2022-09-17T17:18:22.220Z,1.80
2022-09-17T17:20:49.007Z,1.40
2022-09-17T17:23:15.945Z,1.70
2022-09-17T17:25:42.636Z,1.30
2022-09-17T17:28:09.554Z,1.57
2022-09-17T17:30:36.130Z,1.40
2022-09-17T17:33:04.093Z,1.30
2022-09-17T17:35:30.849Z,1.47
2022-09-17T17:37:57.379Z,3.70
2022-09-17T17:40:24.171Z,3.20
2022-09-17T17:42:54.759Z,3.10
2022-09-17T17:45:21.940Z,4.47
2022-09-17T17:47:48.638Z,3.50
2022-09-17T17:50:16.033Z,3.30
2022-09-17T17:52:47.773Z,2.33
2022-09-17T17:55:15.610Z,2.70
2022-09-17T17:57:42.143Z,2.27
2022-09-17T18:00:11.873Z,2.30
2022-09-17T18:02:41.950Z,1.97
2022-09-17T18:05:08.899Z,2.03
2022-09-17T18:07:35.460Z,2.77
2022-09-17T18:10:02.092Z,3.67
2022-09-17T18:12:28.690Z,4.63
2022-09-17T18:14:55.244Z,4.50
2022-09-17T18:17:21.833Z,2.90
2022-09-17T18:19:48.391Z,2.63
2022-09-17T18:22:14.933Z,2.20
2022-09-17T18:24:41.461Z,1.60
2022-09-17T18:27:07.950Z,1.27
2022-09-17T18:29:34.478Z,1.50
2022-09-17T18:32:01.240Z,1.30
2022-09-17T18:34:27.827Z,1.87
2022-09-17T18:36:54.328Z,2.70
2022-09-17T18:42:08.442Z,2.37
2022-09-17T18:44:35.061Z,2.27
2022-09-17T18:47:01.740Z,2.00
2022-09-17T18:49:28.389Z,1.90
2022-09-17T18:51:55.227Z,1.30
2022-09-17T18:54:21.737Z,1.77
2022-09-17T18:56:48.412Z,0.93
2022-09-17T18:59:14.945Z,1.20
2022-09-17T19:01:41.608Z,1.43
2022-09-17T19:04:08.411Z,1.50
2022-09-17T19:06:35.494Z,1.70
2022-09-17T19:09:05.529Z,1.70
2022-09-17T19:11:32.081Z,1.60
2022-09-17T19:13:58.848Z,1.33
2022-09-17T19:16:25.672Z,0.90
2022-09-17T19:18:52.385Z,1.60
2022-09-17T19:21:23.320Z,1.70
2022-09-17T19:23:51.327Z,2.73
2022-09-17T19:26:23.182Z,2.43
2022-09-17T19:28:58.355Z,2.50
2022-09-17T19:31:25.228Z,1.60
2022-09-17T19:33:51.886Z,1.70
2022-09-17T19:36:19.615Z,1.50
2022-09-17T19:38:46.657Z,1.40
2022-09-17T19:41:16.189Z,1.30
2022-09-17T19:43:43.048Z,1.70
2022-09-17T19:46:14.761Z,1.37
2022-09-17T19:48:45.537Z,1.13
2022-09-17T19:51:12.837Z,1.17
2022-09-17T19:53:39.372Z,1.83
2022-09-17T19:56:07.472Z,1.80
2022-09-17T19:58:34.023Z,1.00
2022-09-17T20:01:00.582Z,0.80
2022-09-17T20:03:27.211Z,1.10
2022-09-17T20:06:00.958Z,1.60
2022-09-17T20:08:27.909Z,3.30
2022-09-17T20:10:55.086Z,2.20
2022-09-17T20:13:22.695Z,1.10
2022-09-17T20:15:49.269Z,0.90
2022-09-17T20:18:18.754Z,1.00
2022-09-17T20:20:49.188Z,0.80
2022-09-17T20:23:15.834Z,0.80
2022-09-17T20:25:42.537Z,0.70
2022-09-17T20:28:09.519Z,0.90
2022-09-17T20:30:36.064Z,1.00
2022-09-17T20:33:02.620Z,1.07
2022-09-17T20:35:29.186Z,0.90
2022-09-17T20:38:57.335Z,0.67
2022-09-17T20:40:42.448Z,0.70
2022-09-17T20:43:08.961Z,0.43
2022-09-17T20:45:35.579Z,0.67
2022-09-17T20:48:02.358Z,0.70
2022-09-17T20:50:28.887Z,0.53
2022-09-17T20:52:55.545Z,0.50
2022-09-17T20:55:22.369Z,0.53
2022-09-17T20:57:48.906Z,0.67
2022-09-17T21:00:18.765Z,0.50
2022-09-17T21:02:50.584Z,0.50
2022-09-17T21:05:19.874Z,0.40
2022-09-17T21:07:46.387Z,0.50
2022-09-17T21:10:13.533Z,0.63
2022-09-17T21:12:40.044Z,0.70
2022-09-17T21:15:07.051Z,0.63
2022-09-17T21:17:33.968Z,0.50
2022-09-17T21:20:00.610Z,0.70
2022-09-17T21:22:27.186Z,0.93
2022-09-17T21:24:53.709Z,0.70
2022-09-17T21:27:20.269Z,0.60
2022-09-17T21:29:46.787Z,0.60
2022-09-17T21:32:13.347Z,0.90
2022-09-17T21:34:39.923Z,0.77
2022-09-17T21:37:06.498Z,1.00
2022-09-17T21:39:35.360Z,0.70
2022-09-17T21:42:01.929Z,0.93
2022-09-17T21:44:28.482Z,1.00
2022-09-17T21:46:57.596Z,0.90
2022-09-17T21:49:25.076Z,1.07
2022-09-17T21:51:52.017Z,1.00
2022-09-17T21:54:18.645Z,0.77
2022-09-17T21:56:46.106Z,1.20
2022-09-17T21:59:14.787Z,0.90
2022-09-17T22:01:46.056Z,1.00
2022-09-17T22:04:18.116Z,1.00
2022-09-17T22:06:45.997Z,1.30
2022-09-17T22:09:20.679Z,0.93
2022-09-17T22:11:47.257Z,0.87
2022-09-17T22:14:19.015Z,1.10
2022-09-17T22:16:48.067Z,1.17
2022-09-17T22:19:16.737Z,1.20
2022-09-17T22:21:46.643Z,1.10
2022-09-17T22:24:14.755Z,1.00
2022-09-17T22:26:43.547Z,1.10
2022-09-17T22:29:16.349Z,1.20
2022-09-17T22:31:43.620Z,1.30
2022-09-17T22:34:11.878Z,1.20
2022-09-17T22:36:38.765Z,1.20
2022-09-17T22:39:05.483Z,1.20
2022-09-17T22:41:34.311Z,1.67
2022-09-17T22:44:03.188Z,1.30
2022-09-17T22:46:32.144Z,1.20
2022-09-17T22:48:59.122Z,1.20
2022-09-17T22:51:27.104Z,1.20
2022-09-17T22:53:53.647Z,1.17
2022-09-17T22:56:21.640Z,1.30
2022-09-17T22:58:48.530Z,1.20
2022-09-17T23:01:20.123Z,1.03
2022-09-17T23:03:48.741Z,1.30
2022-09-17T23:06:17.586Z,1.20
2022-09-17T23:08:44.217Z,1.20
2022-09-17T23:11:23.999Z,1.30
2022-09-17T23:13:50.770Z,1.43
2022-09-17T23:16:18.250Z,1.37
2022-09-17T23:18:45.198Z,1.20
2022-09-17T23:21:14.097Z,1.70
2022-09-17T23:23:42.407Z,1.50
2022-09-17T23:26:12.231Z,1.30
2022-09-17T23:28:39.101Z,1.50
2022-09-17T23:31:19.035Z,1.53
2022-09-17T23:33:46.114Z,1.73
2022-09-17T23:36:14.911Z,1.60
2022-09-17T23:38:42.978Z,1.70
2022-09-17T23:41:14.874Z,1.83
2022-09-17T23:43:42.621Z,1.80
2022-09-17T23:46:09.690Z,2.13
2022-09-17T23:48:36.614Z,1.90
2022-09-17T23:51:03.861Z,2.33
2022-09-17T23:53:31.480Z,1.90
2022-09-17T23:56:00.355Z,1.97
2022-09-17T23:58:35.977Z,2.20
